Time;durP1;ratioP1;P1;durP2;ratioP2;P2;SDS_P1;SDS_P2;PMS_P1;PMS_P2;Temp;Humidity;BMP_temperature;BMP_pressure;BME280_temperature;BME280_humidity;BME280_pressure;Samples;Min_cycle;Max_cycle;Signal;HPM_P1;HPM_P2
2022/06/14 00:02:28;;;;;;;;;;;;;;;17.29;60.12;99764.00;4460121;32;33666;-86
2022/06/14 00:04:56;;;;;;;;;;;;;;;17.25;60.18;99773.78;4463080;32;35661;-85
2022/06/14 00:07:26;;;;;;;;;;;;;;;17.25;60.47;99772.91;4465552;32;34892;-86
2022/06/14 00:09:54;;;;;;;;;;;;;;;17.18;60.67;99777.53;4464253;32;34032;-86
2022/06/14 00:12:23;;;;;;;;;;;;;;;17.02;61.43;99779.91;4462017;32;34101;-86
2022/06/14 00:14:51;;;;;;;;;;;;;;;17.21;60.95;99781.81;4462325;32;34029;-86
2022/06/14 00:17:20;;;;;;;;;;;;;;;16.96;62.11;99772.28;4463672;32;34971;-86
2022/06/14 00:19:50;;;;;;;;;;;;;;;16.81;62.67;99768.44;4463541;32;34710;-86
2022/06/14 00:22:18;;;;;;;;;;;;;;;16.94;62.59;99774.09;4466264;32;34285;-86
2022/06/14 00:24:47;;;;;;;;;;;;;;;17.08;62.04;99775.31;4449345;32;33453;-86
2022/06/14 00:27:15;;;;;;;;;;;;;;;16.86;62.58;99781.38;4454204;32;34093;-86
2022/06/14 00:29:44;;;;;;;;;;;;;;;16.94;62.60;99781.13;4461914;32;34922;-86
2022/06/14 00:32:12;;;;;;;;;;;;;;;16.93;62.84;99785.47;4461917;32;34603;-86
2022/06/14 00:34:41;;;;;;;;;;;;;;;16.86;63.11;99797.09;4468775;32;33585;-86
2022/06/14 00:37:14;;;;;;;;;;;;;;;16.77;63.53;99797.44;4462975;32;32987;-85
2022/06/14 00:39:43;;;;;;;;;;;;;;;16.54;64.40;99804.34;4463347;32;34188;-86
2022/06/14 00:42:16;;;;;;;;;;;;;;;16.48;64.83;99815.06;4457833;32;34020;-86
2022/06/14 00:45:00;;;;;;;;;;;;;;;16.34;65.27;99814.69;4463246;32;33367;-86
2022/06/14 00:47:28;;;;;;;;;;;;;;;16.34;65.57;99827.78;4462775;32;33224;-86
2022/06/14 00:49:59;;;;;;;;;;;;;;;16.25;65.80;99825.47;4468383;32;33639;-86
2022/06/14 00:52:33;;;;;;;;;;;;;;;16.42;65.20;99837.06;4461615;32;33540;-86
2022/06/14 00:55:03;;;;;;;;;;;;;;;16.40;65.08;99833.63;4442272;32;33154;-86
2022/06/14 00:57:33;;;;;;;;;;;;;;;16.32;65.58;99843.53;4432969;32;33554;-85
2022/06/14 01:00:07;;;;;;;;;;;;;;;16.22;65.38;99842.13;4438370;32;34175;-86
2022/06/14 01:02:38;;;;;;;;;;;;;;;16.47;64.92;99842.13;4458936;32;34666;-86
2022/06/14 01:05:08;;;;;;;;;;;;;;;16.48;64.89;99846.47;4439020;32;33628;-86
2022/06/14 01:07:39;;;;;;;;;;;;;;;16.39;64.59;99852.88;4434558;32;34606;-86
2022/06/14 01:10:08;;;;;;;;;;;;;;;16.12;65.96;99838.97;4454364;32;34049;-86
2022/06/14 01:12:38;;;;;;;;;;;;;;;15.79;66.96;99827.84;4444268;32;34883;-86
2022/06/14 01:15:07;;;;;;;;;;;;;;;15.88;66.76;99827.56;4438748;32;34170;-86
2022/06/14 01:17:38;;;;;;;;;;;;;;;15.83;66.95;99834.69;4447228;32;34723;-86
2022/06/14 01:20:07;;;;;;;;;;;;;;;15.83;66.84;99849.56;4461682;32;35053;-86
2022/06/14 01:22:37;;;;;;;;;;;;;;;15.92;66.45;99844.00;4462374;32;34289;-86
2022/06/14 01:25:06;;;;;;;;;;;;;;;16.03;66.21;99848.91;4461153;32;34027;-86
2022/06/14 01:27:35;;;;;;;;;;;;;;;15.91;66.69;99850.16;4462531;32;35012;-86
2022/06/14 01:30:09;;;;;;;;;;;;;;;16.04;65.96;99864.53;4464138;32;33249;-86
2022/06/14 01:32:38;;;;;;;;;;;;;;;15.96;65.99;99867.41;4463348;32;35131;-86
2022/06/14 01:35:08;;;;;;;;;;;;;;;16.40;64.53;99858.97;4462552;32;34058;-86
2022/06/14 01:37:37;;;;;;;;;;;;;;;15.96;65.75;99850.84;4461621;32;35085;-86
2022/06/14 01:40:07;;;;;;;;;;;;;;;16.00;66.01;99849.84;4455523;32;33980;-86
2022/06/14 01:42:38;;;;;;;;;;;;;;;16.12;65.39;99866.91;4455423;32;33950;-86
2022/06/14 01:45:09;;;;;;;;;;;;;;;16.14;65.23;99871.19;4467693;32;33281;-86
2022/06/14 01:47:41;;;;;;;;;;;;;;;16.12;65.24;99875.62;4456325;32;32324;-86
2022/06/14 01:53:11;;;;;;;;;;;;;;;16.27;65.28;99886.47;4462387;32;34449;-86
2022/06/14 01:55:41;;;;;;;;;;;;;;;16.13;65.41;99897.41;4468822;32;34180;-86
2022/06/14 01:58:12;;;;;;;;;;;;;;;16.29;64.94;99895.16;4461929;32;34143;-86
2022/06/14 02:00:44;;;;;;;;;;;;;;;16.44;64.34;99892.00;4468453;32;34672;-86
2022/06/14 02:06:08;;;;;;;;;;;;;;;16.48;64.22;99890.12;4457938;32;32902;-87
2022/06/14 02:08:43;;;;;;;;;;;;;;;16.60;63.97;99892.34;4460400;32;34256;-86
2022/06/14 02:11:12;;;;;;;;;;;;;;;16.55;63.82;99891.63;4457823;32;34499;-87
2022/06/14 02:13:42;;;;;;;;;;;;;;;16.41;64.37;99894.72;4462515;32;34079;-86
2022/06/14 02:16:13;;;;;;;;;;;;;;;16.12;65.33;99893.09;4470223;32;34149;-86
2022/06/14 02:18:43;;;;;;;;;;;;;;;16.46;64.18;99890.19;4463487;32;33619;-86
2022/06/14 02:21:13;;;;;;;;;;;;;;;16.11;65.40;99889.59;4458431;32;33897;-86
2022/06/14 02:23:43;;;;;;;;;;;;;;;16.12;65.15;99878.22;4457031;32;34030;-86
2022/06/14 02:26:13;;;;;;;;;;;;;;;16.16;65.31;99886.81;4456226;32;33276;-86
2022/06/14 02:28:43;;;;;;;;;;;;;;;16.25;64.62;99889.13;4468385;32;34042;-86
2022/06/14 02:31:13;;;;;;;;;;;;;;;16.03;64.81;99889.00;4467141;32;34494;-86
2022/06/14 02:33:44;;;;;;;;;;;;;;;16.00;65.56;99894.34;4459823;32;33778;-86
2022/06/14 02:36:14;;;;;;;;;;;;;;;16.13;64.89;99884.31;4454861;32;32407;-86
2022/06/14 02:38:44;;;;;;;;;;;;;;;15.99;65.30;99895.22;4460690;32;34805;-86
2022/06/14 02:41:14;;;;;;;;;;;;;;;15.98;65.61;99891.75;4461313;32;34266;-86
2022/06/14 02:43:43;;;;;;;;;;;;;;;15.97;65.91;99894.41;4466614;32;33090;-86
2022/06/14 02:46:18;;;;;;;;;;;;;;;16.00;65.69;99904.81;4465497;32;33511;-86
2022/06/14 02:48:47;;;;;;;;;;;;;;;16.14;65.35;99901.72;4454592;32;33176;-87
2022/06/14 02:51:17;;;;;;;;;;;;;;;15.95;66.12;99902.31;4463000;32;34449;-86
2022/06/14 02:53:47;;;;;;;;;;;;;;;16.36;64.36;99905.34;4463576;32;33904;-86
2022/06/14 02:56:16;;;;;;;;;;;;;;;16.10;65.33;99914.06;4463926;32;33989;-87
2022/06/14 02:58:47;;;;;;;;;;;;;;;16.13;65.24;99911.34;4468862;32;33547;-86
2022/06/14 03:01:17;;;;;;;;;;;;;;;16.16;64.74;99915.63;4471381;32;34345;-87
2022/06/14 03:03:47;;;;;;;;;;;;;;;16.21;64.74;99914.56;4463596;32;33681;-86
2022/06/14 03:06:19;;;;;;;;;;;;;;;15.96;65.37;99921.50;4463991;32;32957;-87
2022/06/14 03:08:51;;;;;;;;;;;;;;;16.19;64.62;99931.25;4465036;32;34160;-86
2022/06/14 03:11:22;;;;;;;;;;;;;;;16.08;64.86;99913.25;4465947;32;34074;-86
2022/06/14 03:13:52;;;;;;;;;;;;;;;15.94;65.27;99911.06;4463965;32;33028;-86
2022/06/14 03:16:22;;;;;;;;;;;;;;;15.81;65.46;99909.75;4465223;32;34511;-86
2022/06/14 03:18:52;;;;;;;;;;;;;;;15.95;65.32;99914.56;4461350;32;34609;-86
2022/06/14 03:21:21;;;;;;;;;;;;;;;15.89;65.50;99914.75;4464109;32;34732;-87
2022/06/14 03:23:59;;;;;;;;;;;;;;;15.67;66.22;99917.13;4460615;32;34353;-87
2022/06/14 03:26:29;;;;;;;;;;;;;;;15.92;65.33;99918.13;4467169;32;34080;-86
2022/06/14 03:29:00;;;;;;;;;;;;;;;15.87;65.44;99916.53;4463839;32;34022;-86
2022/06/14 03:31:30;;;;;;;;;;;;;;;15.56;67.08;99927.94;4460019;32;33211;-86
2022/06/14 03:34:00;;;;;;;;;;;;;;;16.02;65.53;99918.69;4465397;32;34760;-86
2022/06/14 03:36:28;;;;;;;;;;;;;;;16.29;64.37;99935.25;4464251;32;33555;-86
2022/06/14 03:38:59;;;;;;;;;;;;;;;16.30;64.27;99938.72;4468744;32;33989;-86
2022/06/14 03:41:28;;;;;;;;;;;;;;;16.06;65.46;99938.59;4455398;32;34211;-87
2022/06/14 03:43:57;;;;;;;;;;;;;;;16.19;64.18;99939.09;4449018;32;34021;-86
2022/06/14 03:46:28;;;;;;;;;;;;;;;16.03;65.16;99932.63;4477724;32;33177;-86
2022/06/14 03:48:58;;;;;;;;;;;;;;;16.26;64.69;99940.59;4480485;32;34085;-86
2022/06/14 03:51:32;;;;;;;;;;;;;;;16.45;63.68;99935.59;4479801;32;34136;-86
2022/06/14 03:54:09;;;;;;;;;;;;;;;16.27;64.69;99944.06;4475805;32;33862;-86
2022/06/14 03:56:44;;;;;;;;;;;;;;;16.34;64.03;99948.22;4462876;32;32502;-86
2022/06/14 03:59:17;;;;;;;;;;;;;;;16.02;65.53;99949.22;4464317;32;34949;-86
2022/06/14 04:01:48;;;;;;;;;;;;;;;16.25;64.94;99951.12;4464718;32;34232;-86
2022/06/14 04:04:22;;;;;;;;;;;;;;;16.22;64.58;99957.31;4462983;32;34147;-87
2022/06/14 04:06:51;;;;;;;;;;;;;;;16.30;64.67;99954.44;4463022;32;33209;-87
2022/06/14 04:09:25;;;;;;;;;;;;;;;16.55;63.81;99952.75;4468634;32;34242;-86
2022/06/14 04:11:56;;;;;;;;;;;;;;;16.19;64.70;99960.88;4460407;32;35027;-86
2022/06/14 04:14:32;;;;;;;;;;;;;;;16.38;63.83;99958.53;4462790;32;33601;-86
2022/06/14 04:17:02;;;;;;;;;;;;;;;16.30;64.32;99965.75;4471891;32;33154;-86
2022/06/14 04:19:34;;;;;;;;;;;;;;;16.16;65.12;99966.22;4452882;32;34836;-87
2022/06/14 04:22:11;;;;;;;;;;;;;;;16.21;64.90;99968.66;4462505;32;34614;-86
2022/06/14 04:24:43;;;;;;;;;;;;;;;16.11;65.55;99964.63;4468262;32;34080;-86
2022/06/14 04:27:13;;;;;;;;;;;;;;;16.40;64.74;99972.41;4462072;32;33050;-86
2022/06/14 04:29:43;;;;;;;;;;;;;;;16.48;64.70;99972.19;4449398;32;33562;-86
2022/06/14 04:32:13;;;;;;;;;;;;;;;16.56;64.06;99964.06;4463249;32;34581;-87
2022/06/14 04:34:43;;;;;;;;;;;;;;;16.88;63.59;99975.25;4462786;32;34417;-87
2022/06/14 04:37:12;;;;;;;;;;;;;;;17.24;61.96;99980.94;4468707;32;34697;-87
2022/06/14 04:39:43;;;;;;;;;;;;;;;17.42;60.78;99975.03;4461351;32;34974;-87
2022/06/14 04:42:13;;;;;;;;;;;;;;;16.96;62.03;99976.69;4463502;32;34170;-87
2022/06/14 04:44:42;;;;;;;;;;;;;;;16.91;62.19;99978.59;4458958;32;33653;-86
2022/06/14 04:47:12;;;;;;;;;;;;;;;17.37;61.09;99978.72;4461767;32;33302;-87
2022/06/14 04:49:43;;;;;;;;;;;;;;;18.06;58.95;99989.28;4461945;32;33377;-86
2022/06/14 04:52:12;;;;;;;;;;;;;;;18.40;57.13;99980.06;4465497;32;34815;-86
2022/06/14 04:54:46;;;;;;;;;;;;;;;18.78;56.64;99989.00;4462849;32;33969;-87
2022/06/14 04:57:16;;;;;;;;;;;;;;;19.39;55.20;99994.22;4462222;32;33177;-86
2022/06/14 04:59:46;;;;;;;;;;;;;;;19.57;53.85;99997.81;4462828;32;34210;-86
2022/06/14 05:02:15;;;;;;;;;;;;;;;19.66;54.37;99995.69;4456483;32;34860;-86
2022/06/14 05:04:44;;;;;;;;;;;;;;;20.12;53.28;100004.94;4462956;32;34106;-87
2022/06/14 05:07:14;;;;;;;;;;;;;;;20.31;51.93;100002.28;4460759;32;33719;-87
2022/06/14 05:09:45;;;;;;;;;;;;;;;19.74;53.18;100009.34;4461615;32;33643;-86
2022/06/14 05:12:15;;;;;;;;;;;;;;;19.77;53.74;100007.47;4461465;32;34604;-86
2022/06/14 05:14:44;;;;;;;;;;;;;;;19.90;53.25;100020.06;4462283;32;34752;-86
2022/06/14 05:17:13;;;;;;;;;;;;;;;19.73;53.49;100019.03;4476685;32;33682;-86
2022/06/14 05:19:43;;;;;;;;;;;;;;;19.33;54.45;100015.56;4473609;32;34636;-86
2022/06/14 05:22:12;;;;;;;;;;;;;;;19.29;54.74;100018.38;4455160;32;33448;-86
2022/06/14 05:24:41;;;;;;;;;;;;;;;18.94;55.83;100018.12;4460106;32;34013;-86
2022/06/14 05:27:25;;;;;;;;;;;;;;;18.79;57.03;100026.66;4459439;32;33704;-86
2022/06/14 05:29:56;;;;;;;;;;;;;;;18.61;57.59;100028.25;4450727;32;34206;-87
2022/06/14 05:32:30;;;;;;;;;;;;;;;19.10;56.64;100026.22;4464845;32;34834;-86
2022/06/14 05:35:06;;;;;;;;;;;;;;;19.31;55.35;100022.66;4465260;32;34521;-87
2022/06/14 05:37:36;;;;;;;;;;;;;;;18.99;55.96;100021.41;4462311;32;33924;-86
2022/06/14 05:40:08;;;;;;;;;;;;;;;19.25;55.78;100029.94;4465444;32;34221;-86
2022/06/14 05:42:37;;;;;;;;;;;;;;;19.14;55.71;100030.44;4462380;32;35231;-87
2022/06/14 05:45:07;;;;;;;;;;;;;;;19.72;54.17;100025.25;4464050;32;34049;-86
2022/06/14 05:47:37;;;;;;;;;;;;;;;19.90;53.53;100025.31;4469896;32;34164;-87
2022/06/14 05:50:07;;;;;;;;;;;;;;;20.23;52.84;100034.28;4459265;32;33989;-85
2022/06/14 05:52:39;;;;;;;;;;;;;;;20.25;52.40;100037.69;4454813;32;33790;-87
2022/06/14 05:55:12;;;;;;;;;;;;;;;20.58;52.20;100030.87;4458117;32;34651;-88
2022/06/14 05:57:41;;;;;;;;;;;;;;;20.49;52.08;100028.66;4461583;32;33278;-86
2022/06/14 06:00:11;;;;;;;;;;;;;;;20.28;52.70;100039.31;4467049;32;32728;-87
2022/06/14 06:02:40;;;;;;;;;;;;;;;19.91;53.34;100030.53;4467394;32;34140;-87
2022/06/14 06:05:10;;;;;;;;;;;;;;;19.85;54.25;100038.69;4464515;32;33535;-87
2022/06/14 06:07:39;;;;;;;;;;;;;;;19.53;54.48;100035.72;4463411;32;32894;-87
2022/06/14 06:10:09;;;;;;;;;;;;;;;19.37;55.50;100039.94;4463768;32;33920;-88
2022/06/14 06:12:41;;;;;;;;;;;;;;;19.60;55.20;100047.69;4457222;32;34146;-88
2022/06/14 06:15:12;;;;;;;;;;;;;;;19.82;54.58;100041.47;4460860;32;34442;-89
2022/06/14 06:17:42;;;;;;;;;;;;;;;19.75;54.35;100050.56;4461004;32;33841;-89
2022/06/14 06:20:13;;;;;;;;;;;;;;;19.40;54.21;100056.47;4456476;32;34860;-89
2022/06/14 06:22:43;;;;;;;;;;;;;;;19.29;54.65;100061.31;4456489;32;33748;-89
2022/06/14 06:25:12;;;;;;;;;;;;;;;19.24;55.26;100059.81;4460644;32;34049;-89
2022/06/14 06:27:41;;;;;;;;;;;;;;;19.20;54.61;100056.44;4466890;32;34119;-88
2022/06/14 06:30:13;;;;;;;;;;;;;;;19.45;55.01;100064.16;4459070;32;34909;-89
2022/06/14 06:32:42;;;;;;;;;;;;;;;19.62;54.38;100063.41;4470812;32;32796;-88
2022/06/14 06:35:10;;;;;;;;;;;;;;;19.56;55.68;100064.50;4469091;32;34331;-89
2022/06/14 06:37:40;;;;;;;;;;;;;;;19.95;54.70;100060.19;4464046;32;33275;-86
2022/06/14 06:40:12;;;;;;;;;;;;;;;19.79;54.79;100070.59;4457145;32;33713;-87
2022/06/14 06:42:41;;;;;;;;;;;;;;;19.83;54.43;100062.44;4472636;32;34984;-86
2022/06/14 06:45:11;;;;;;;;;;;;;;;20.17;54.21;100070.56;4461319;32;34188;-86
2022/06/14 06:47:41;;;;;;;;;;;;;;;19.97;54.89;100075.00;4463804;32;32558;-87
2022/06/14 06:50:13;;;;;;;;;;;;;;;20.05;54.20;100072.00;4459678;32;33329;-86
2022/06/14 06:52:44;;;;;;;;;;;;;;;20.23;53.55;100075.56;4458716;32;34867;-87
2022/06/14 06:55:14;;;;;;;;;;;;;;;20.09;53.70;100075.34;4462304;32;34245;-88
2022/06/14 06:57:42;;;;;;;;;;;;;;;20.16;53.53;100080.28;4456054;32;33385;-87
2022/06/14 07:00:11;;;;;;;;;;;;;;;20.28;52.46;100078.00;4454522;32;34261;-87
2022/06/14 07:02:41;;;;;;;;;;;;;;;20.46;53.00;100085.00;4465996;32;35132;-87
2022/06/14 07:05:14;;;;;;;;;;;;;;;20.50;52.03;100088.37;4471307;32;33714;-86
2022/06/14 07:07:46;;;;;;;;;;;;;;;20.51;50.65;100085.63;4462894;32;34365;-87
2022/06/14 07:10:19;;;;;;;;;;;;;;;20.44;51.91;100079.84;4464433;32;34691;-86
2022/06/14 07:12:49;;;;;;;;;;;;;;;20.89;50.13;100080.31;4465555;32;34624;-87
2022/06/14 07:15:18;;;;;;;;;;;;;;;20.66;50.48;100081.47;4464631;32;33701;-87
2022/06/14 07:17:48;;;;;;;;;;;;;;;20.81;50.79;100078.06;4464897;32;33277;-86
2022/06/14 07:20:24;;;;;;;;;;;;;;;20.88;50.04;100074.19;4459276;32;33377;-87
2022/06/14 07:22:53;;;;;;;;;;;;;;;21.07;48.63;100079.41;4465385;32;34291;-87
2022/06/14 07:25:22;;;;;;;;;;;;;;;21.03;50.04;100077.00;4456441;32;34422;-87
2022/06/14 07:27:52;;;;;;;;;;;;;;;21.39;47.93;100071.66;4456163;32;33878;-86
2022/06/14 07:30:22;;;;;;;;;;;;;;;21.38;47.07;100082.25;4456941;32;34870;-86
2022/06/14 07:32:53;;;;;;;;;;;;;;;21.36;47.41;100077.06;4456753;32;33953;-87
2022/06/14 07:35:26;;;;;;;;;;;;;;;21.67;46.01;100073.72;4468587;32;34792;-87
2022/06/14 07:38:16;;;;;;;;;;;;;;;21.47;46.75;100076.53;4461476;32;33443;-85
2022/06/14 07:40:53;;;;;;;;;;;;;;;21.45;46.23;100083.69;4461348;32;34963;-86
2022/06/14 07:43:23;;;;;;;;;;;;;;;21.68;45.93;100079.84;4455784;32;33248;-88
2022/06/14 07:45:52;;;;;;;;;;;;;;;21.68;44.86;100075.41;4460458;32;35518;-86
2022/06/14 07:48:23;;;;;;;;;;;;;;;21.78;44.29;100085.50;4457693;32;33665;-87
2022/06/14 07:50:52;;;;;;;;;;;;;;;21.76;43.74;100077.63;4464889;32;34836;-88
2022/06/14 07:53:21;;;;;;;;;;;;;;;21.44;44.97;100082.84;4469862;32;34248;-87
2022/06/14 07:55:50;;;;;;;;;;;;;;;21.97;43.84;100083.56;4464604;32;35159;-87
2022/06/14 07:58:20;;;;;;;;;;;;;;;21.90;43.86;100082.19;4462257;32;34312;-87
2022/06/14 08:03:37;;;;;;;;;;;;;;;22.06;43.30;100085.72;4458966;32;34088;-88
2022/06/14 08:06:08;;;;;;;;;;;;;;;21.95;43.99;100077.50;4455374;32;34440;-87
2022/06/14 08:08:37;;;;;;;;;;;;;;;21.93;43.93;100076.72;4464928;32;33385;-88
2022/06/14 08:11:06;;;;;;;;;;;;;;;22.15;41.70;100074.63;4461200;32;34019;-87
2022/06/14 08:13:37;;;;;;;;;;;;;;;22.08;41.04;100078.53;4452712;32;34289;-88
2022/06/14 08:16:07;;;;;;;;;;;;;;;22.47;41.50;100079.97;4449435;32;34785;-88
2022/06/14 08:18:38;;;;;;;;;;;;;;;22.23;40.47;100076.00;4468462;32;33094;-87
2022/06/14 08:21:09;;;;;;;;;;;;;;;22.05;36.31;100081.34;4467012;32;34213;-87
2022/06/14 08:23:39;;;;;;;;;;;;;;;22.07;37.03;100082.13;4463709;32;33564;-87
2022/06/14 08:26:08;;;;;;;;;;;;;;;21.97;38.41;100078.28;4460742;32;33793;-88
2022/06/14 08:28:38;;;;;;;;;;;;;;;22.05;37.48;100078.69;4458483;32;34198;-87
2022/06/14 08:31:08;;;;;;;;;;;;;;;22.43;36.83;100082.84;4464107;32;33756;-86
2022/06/14 08:33:39;;;;;;;;;;;;;;;22.37;31.61;100082.25;4464010;32;32573;-87
2022/06/14 08:36:10;;;;;;;;;;;;;;;22.21;33.95;100084.06;4466313;32;33283;-87
2022/06/14 08:38:40;;;;;;;;;;;;;;;21.97;33.47;100074.78;4456624;32;32985;-87
2022/06/14 08:41:13;;;;;;;;;;;;;;;22.43;34.46;100078.41;4455268;32;34075;-87
2022/06/14 08:43:43;;;;;;;;;;;;;;;22.54;35.41;100070.75;4446919;32;34417;-87
2022/06/14 08:46:19;;;;;;;;;;;;;;;22.84;31.39;100069.91;4453222;32;33990;-88
2022/06/14 08:48:54;;;;;;;;;;;;;;;22.72;32.77;100079.41;4466642;32;34262;-88
2022/06/14 08:51:25;;;;;;;;;;;;;;;22.80;34.35;100071.88;4465948;32;33235;-87
2022/06/14 08:54:18;;;;;;;;;;;;;;;22.90;35.04;100072.19;4455730;32;34090;-87
2022/06/14 08:57:04;;;;;;;;;;;;;;;22.82;36.24;100074.44;4457214;32;33891;-87
2022/06/14 08:59:48;;;;;;;;;;;;;;;22.85;36.28;100076.06;4457237;32;32707;-87
2022/06/14 09:02:22;;;;;;;;;;;;;;;22.93;35.26;100068.50;4461011;32;33740;-88
2022/06/14 09:04:59;;;;;;;;;;;;;;;22.75;33.77;100073.09;4457254;32;34004;-88
2022/06/14 09:07:35;;;;;;;;;;;;;;;22.75;34.20;100068.63;4460758;32;34318;-87
2022/06/14 09:10:10;;;;;;;;;;;;;;;23.23;34.55;100071.19;4470610;32;33875;-87
2022/06/14 09:12:54;;;;;;;;;;;;;;;23.17;32.77;100069.75;4464106;32;33779;-88
2022/06/14 09:15:52;;;;;;;;;;;;;;;22.79;33.57;100070.19;4463483;32;34260;-86
2022/06/14 09:18:33;;;;;;;;;;;;;;;23.39;33.27;100079.91;4464510;32;34780;-86
2022/06/14 09:21:09;;;;;;;;;;;;;;;23.27;33.64;100069.19;4465037;32;33494;-88
2022/06/14 09:23:41;;;;;;;;;;;;;;;23.50;33.76;100067.81;4463441;32;33940;-86
2022/06/14 09:26:18;;;;;;;;;;;;;;;23.73;32.62;100061.13;4448287;32;34174;-87
2022/06/14 09:29:04;;;;;;;;;;;;;;;23.85;32.70;100060.38;4450338;32;33817;-87
2022/06/14 09:31:35;;;;;;;;;;;;;;;24.00;31.56;100067.37;4466198;32;34007;-87
2022/06/14 09:34:11;;;;;;;;;;;;;;;23.96;30.74;100067.66;4463680;32;34866;-87
2022/06/14 09:36:50;;;;;;;;;;;;;;;23.82;31.25;100069.38;4448693;32;33330;-88
2022/06/14 09:39:31;;;;;;;;;;;;;;;24.10;29.33;100059.69;4456467;32;34903;-87
2022/06/14 09:42:08;;;;;;;;;;;;;;;23.93;29.75;100050.16;4456123;32;32986;-87
2022/06/14 09:44:45;;;;;;;;;;;;;;;24.02;30.64;100064.63;4457649;32;35405;-87
2022/06/14 09:47:21;;;;;;;;;;;;;;;24.10;29.26;100059.69;4452988;32;34059;-87
2022/06/14 09:49:57;;;;;;;;;;;;;;;24.17;29.96;100060.16;4465822;32;34032;-87
2022/06/14 09:52:47;;;;;;;;;;;;;;;23.91;27.92;100059.16;4463261;32;33497;-87
2022/06/14 09:55:46;;;;;;;;;;;;;;;24.38;28.56;100053.47;4476048;32;35105;-86
2022/06/14 09:58:24;;;;;;;;;;;;;;;24.73;28.48;100058.28;4416173;32;34598;-87
2022/06/14 10:00:54;;;;;;;;;;;;;;;24.09;29.24;100054.47;4416399;32;34200;-87
2022/06/14 10:03:41;;;;;;;;;;;;;;;24.45;28.46;100059.22;4417103;32;33554;-88
2022/06/14 10:06:19;;;;;;;;;;;;;;;24.47;29.09;100057.34;4416597;32;34180;-88
2022/06/14 10:08:56;;;;;;;;;;;;;;;24.68;30.03;100061.25;4416448;32;34156;-88
2022/06/14 10:11:29;;;;;;;;;;;;;;;24.63;28.31;100049.25;4419246;32;34081;-87
2022/06/14 10:14:00;;;;;;;;;;;;;;;24.48;28.51;100072.31;4410305;32;31831;-87
2022/06/14 10:16:36;;;;;;;;;;;;;;;24.02;28.14;100056.69;4414992;32;33797;-87
2022/06/14 10:19:10;;;;;;;;;;;;;;;23.88;27.84;100059.34;4415073;32;34271;-88
2022/06/14 10:21:40;;;;;;;;;;;;;;;23.97;28.63;100049.03;4415761;32;33924;-88
2022/06/14 10:24:16;;;;;;;;;;;;;;;23.31;29.31;100049.53;4412216;32;32492;-88
2022/06/14 10:29:46;;;;;;;;;;;;;;;23.92;30.26;100045.81;4419816;32;35129;-88
2022/06/14 10:32:33;;;;;;;;;;;;;;;23.96;28.84;100039.34;4435538;32;34833;-87
2022/06/14 10:35:02;;;;;;;;;;;;;;;24.19;28.76;100042.34;4464097;32;33821;-88
2022/06/14 10:37:36;;;;;;;;;;;;;;;24.37;29.19;100046.44;4457527;32;34214;-88
2022/06/14 10:40:22;;;;;;;;;;;;;;;23.78;29.84;100041.38;4463417;32;34162;-88
2022/06/14 10:42:53;;;;;;;;;;;;;;;23.86;29.00;100040.87;4463132;32;34180;-88
2022/06/14 10:45:31;;;;;;;;;;;;;;;23.60;31.16;100030.06;4469608;32;33763;-88
2022/06/14 10:48:07;;;;;;;;;;;;;;;23.83;30.92;100027.84;4469369;32;33999;-88
2022/06/14 10:50:39;;;;;;;;;;;;;;;24.06;29.49;100031.66;4465018;32;33986;-88
2022/06/14 10:53:11;;;;;;;;;;;;;;;24.01;29.44;100039.06;4461554;32;34160;-88
2022/06/14 10:55:55;;;;;;;;;;;;;;;23.94;29.53;100037.75;4454772;32;33506;-88
2022/06/14 10:58:38;;;;;;;;;;;;;;;24.16;29.63;100030.16;4451333;32;35011;-89
2022/06/14 11:01:11;;;;;;;;;;;;;;;24.53;29.31;100018.97;4437521;32;33649;-87
2022/06/14 11:03:44;;;;;;;;;;;;;;;24.40;30.74;100037.44;4469335;32;34759;-88
2022/06/14 11:06:18;;;;;;;;;;;;;;;24.20;28.03;100034.28;4466782;32;32830;-89
2022/06/14 11:08:51;;;;;;;;;;;;;;;24.27;29.03;100030.28;4464201;32;34106;-89
2022/06/14 11:11:27;;;;;;;;;;;;;;;24.38;30.02;100020.78;4463499;32;32427;-89
2022/06/14 11:13:57;;;;;;;;;;;;;;;24.13;30.21;100019.72;4460584;32;34029;-88
2022/06/14 11:16:41;;;;;;;;;;;;;;;23.62;30.12;100027.34;4465171;32;33398;-88
2022/06/14 11:19:23;;;;;;;;;;;;;;;23.53;31.09;100023.44;4464732;32;34615;-89
2022/06/14 11:22:11;;;;;;;;;;;;;;;23.37;31.21;100034.16;4470495;32;34016;-88
2022/06/14 11:24:49;;;;;;;;;;;;;;;23.24;31.40;100033.16;4458082;32;34071;-89
2022/06/14 11:27:20;;;;;;;;;;;;;;;23.61;30.56;100030.94;4464778;32;33571;-88
2022/06/14 11:29:50;;;;;;;;;;;;;;;23.78;30.84;100028.13;4463235;32;33334;-88
2022/06/14 11:32:23;;;;;;;;;;;;;;;24.06;31.33;100031.66;4449808;32;34077;-88
2022/06/14 11:34:54;;;;;;;;;;;;;;;24.36;31.69;100025.34;4460153;32;34780;-88
2022/06/14 11:37:28;;;;;;;;;;;;;;;24.55;30.91;100022.34;4469005;32;32690;-88
2022/06/14 11:39:58;;;;;;;;;;;;;;;24.60;30.35;100013.16;4466055;32;35988;-88
2022/06/14 11:42:28;;;;;;;;;;;;;;;24.63;30.95;100026.22;4465777;32;35071;-88
2022/06/14 11:45:07;;;;;;;;;;;;;;;25.08;29.19;100017.91;4456268;32;34203;-89
2022/06/14 11:47:38;;;;;;;;;;;;;;;25.10;28.62;100016.87;4465500;32;33249;-88
2022/06/14 11:50:10;;;;;;;;;;;;;;;25.57;28.07;100019.84;4464616;32;34676;-89
2022/06/14 11:52:42;;;;;;;;;;;;;;;25.70;28.66;100022.50;4469706;32;34804;-89
2022/06/14 11:55:15;;;;;;;;;;;;;;;25.46;30.39;100028.56;4464585;32;34162;-90
2022/06/14 11:57:46;;;;;;;;;;;;;;;25.68;29.67;100029.72;4464332;32;33107;-90
2022/06/14 12:00:23;;;;;;;;;;;;;;;25.50;27.28;100031.88;4462375;32;34134;-90
2022/06/14 12:03:17;;;;;;;;;;;;;;;25.08;30.05;100024.09;4465018;32;34134;-91
2022/06/14 12:05:47;;;;;;;;;;;;;;;25.15;30.62;100032.44;4462941;32;34710;-90
2022/06/14 12:08:21;;;;;;;;;;;;;;;25.08;31.02;100036.47;4463098;32;34040;-90
2022/06/14 12:10:51;;;;;;;;;;;;;;;25.46;31.11;100025.91;4468352;32;34737;-91
2022/06/14 12:13:43;;;;;;;;;;;;;;;25.84;29.78;100027.66;4464235;32;33687;-90
2022/06/14 12:16:12;;;;;;;;;;;;;;;25.75;27.57;100020.34;4464793;32;34057;-90
2022/06/14 12:18:43;;;;;;;;;;;;;;;25.82;28.01;100016.28;4462964;32;34204;-89
2022/06/14 12:21:36;;;;;;;;;;;;;;;25.98;27.91;100015.25;4463542;32;35054;-91
2022/06/14 12:24:06;;;;;;;;;;;;;;;26.06;27.97;100011.06;4454617;32;33778;-89
2022/06/14 12:26:40;;;;;;;;;;;;;;;26.30;27.41;100000.44;4469586;32;34744;-90
2022/06/14 12:29:10;;;;;;;;;;;;;;;26.06;27.72;100007.56;4468554;32;33266;-90
2022/06/14 12:31:42;;;;;;;;;;;;;;;26.36;28.07;99992.00;4464468;32;34711;-90
2022/06/14 12:34:14;;;;;;;;;;;;;;;26.30;27.25;100011.06;4463582;32;33905;-91
2022/06/14 12:36:44;;;;;;;;;;;;;;;25.41;29.00;100011.25;4464141;32;34840;-89
2022/06/14 12:39:14;;;;;;;;;;;;;;;25.22;29.56;100009.87;4461875;32;33589;-90
2022/06/14 12:41:43;;;;;;;;;;;;;;;25.60;28.52;99998.38;4485216;32;34059;-89
2022/06/14 12:44:24;;;;;;;;;;;;;;;25.38;29.46;99998.19;4468579;32;34243;-89
2022/06/14 12:46:53;;;;;;;;;;;;;;;26.01;29.74;100010.53;4462940;32;34498;-91
2022/06/14 12:49:23;;;;;;;;;;;;;;;25.75;28.16;100004.41;4449192;32;33099;-89
2022/06/14 12:51:54;;;;;;;;;;;;;;;25.51;28.66;100005.19;4456029;32;33423;-89
2022/06/14 12:54:30;;;;;;;;;;;;;;;25.31;28.10;100006.59;4463506;32;34943;-90
2022/06/14 12:57:02;;;;;;;;;;;;;;;25.38;28.25;100014.13;4468660;32;33978;-89
2022/06/14 12:59:33;;;;;;;;;;;;;;;25.22;28.18;100001.06;4463702;32;32895;-90
2022/06/14 13:02:03;;;;;;;;;;;;;;;25.26;29.37;100003.41;4457354;32;34378;-90
2022/06/14 13:04:35;;;;;;;;;;;;;;;25.24;28.99;100000.00;4458178;32;34039;-90
2022/06/14 13:07:19;;;;;;;;;;;;;;;25.42;29.69;99991.69;4456519;32;33969;-90
2022/06/14 13:09:51;;;;;;;;;;;;;;;25.91;29.45;99994.41;4459639;32;34007;-90
2022/06/14 13:12:23;;;;;;;;;;;;;;;26.09;28.41;99986.06;4455336;32;34018;-89
2022/06/14 13:14:54;;;;;;;;;;;;;;;25.93;27.85;99981.88;4456944;32;34194;-90
2022/06/14 13:17:26;;;;;;;;;;;;;;;25.99;28.99;99985.03;4456942;32;32464;-90
2022/06/14 13:19:58;;;;;;;;;;;;;;;25.86;28.80;99983.25;4460771;32;33012;-90